sensor_id;sensor_type;location;lat;lon;timestamp;P1;durP1;ratioP1;P2;durP2;ratioP2
34836;SDS011;21053;50.848;4.652;2023-04-24T00:00:16;31.52;;;13.25;;
34836;SDS011;21053;50.848;4.652;2023-04-24T00:05:13;32.63;;;12.52;;
34836;SDS011;21053;50.848;4.652;2023-04-24T00:07:44;35.00;;;13.48;;
34836;SDS011;21053;50.848;4.652;2023-04-24T00:10:12;28.33;;;12.50;;
34836;SDS011;21053;50.848;4.652;2023-04-24T00:12:41;26.92;;;12.70;;
34836;SDS011;21053;50.848;4.652;2023-04-24T00:15:09;33.67;;;14.13;;
34836;SDS011;21053;50.848;4.652;2023-04-24T00:17:35;31.05;;;12.85;;
34836;SDS011;21053;50.848;4.652;2023-04-24T00:20:01;34.25;;;14.27;;
34836;SDS011;21053;50.848;4.652;2023-04-24T00:22:30;30.83;;;12.82;;
34836;SDS011;21053;50.848;4.652;2023-04-24T00:25:00;29.33;;;12.57;;
34836;SDS011;21053;50.848;4.652;2023-04-24T00:30:14;28.63;;;13.48;;
34836;SDS011;21053;50.848;4.652;2023-04-24T00:32:41;32.92;;;12.52;;
34836;SDS011;21053;50.848;4.652;2023-04-24T00:37:36;35.03;;;12.57;;
34836;SDS011;21053;50.848;4.652;2023-04-24T00:40:03;35.10;;;13.75;;
34836;SDS011;21053;50.848;4.652;2023-04-24T00:42:31;34.35;;;13.38;;
34836;SDS011;21053;50.848;4.652;2023-04-24T00:44:59;35.72;;;13.57;;
34836;SDS011;21053;50.848;4.652;2023-04-24T00:47:26;30.75;;;12.57;;
34836;SDS011;21053;50.848;4.652;2023-04-24T00:49:52;31.40;;;13.27;;
34836;SDS011;21053;50.848;4.652;2023-04-24T00:52:21;40.78;;;13.07;;
34836;SDS011;21053;50.848;4.652;2023-04-24T00:54:52;34.28;;;12.77;;
34836;SDS011;21053;50.848;4.652;2023-04-24T00:57:17;33.75;;;12.93;;
34836;SDS011;21053;50.848;4.652;2023-04-24T00:59:45;25.75;;;12.45;;
34836;SDS011;21053;50.848;4.652;2023-04-24T01:07:10;29.40;;;12.55;;
34836;SDS011;21053;50.848;4.652;2023-04-24T01:09:45;35.92;;;13.82;;
34836;SDS011;21053;50.848;4.652;2023-04-24T01:12:16;23.83;;;11.93;;
34836;SDS011;21053;50.848;4.652;2023-04-24T01:14:42;29.25;;;12.30;;
34836;SDS011;21053;50.848;4.652;2023-04-24T01:17:09;34.20;;;13.57;;
34836;SDS011;21053;50.848;4.652;2023-04-24T01:19:37;26.60;;;11.82;;
34836;SDS011;21053;50.848;4.652;2023-04-24T01:22:08;32.10;;;12.20;;
34836;SDS011;21053;50.848;4.652;2023-04-24T01:24:36;35.35;;;12.30;;
34836;SDS011;21053;50.848;4.652;2023-04-24T01:27:03;35.60;;;12.30;;
34836;SDS011;21053;50.848;4.652;2023-04-24T01:29:29;23.55;;;12.38;;
34836;SDS011;21053;50.848;4.652;2023-04-24T01:32:03;23.75;;;10.93;;
34836;SDS011;21053;50.848;4.652;2023-04-24T01:34:30;27.23;;;11.98;;
34836;SDS011;21053;50.848;4.652;2023-04-24T01:36:57;23.98;;;10.65;;
34836;SDS011;21053;50.848;4.652;2023-04-24T01:39:23;30.40;;;12.20;;
34836;SDS011;21053;50.848;4.652;2023-04-24T01:44:19;27.00;;;10.88;;
34836;SDS011;21053;50.848;4.652;2023-04-24T01:46:48;19.67;;;10.70;;
34836;SDS011;21053;50.848;4.652;2023-04-24T01:49:16;23.70;;;11.00;;
34836;SDS011;21053;50.848;4.652;2023-04-24T01:51:54;34.83;;;11.07;;
34836;SDS011;21053;50.848;4.652;2023-04-24T01:54:21;26.70;;;11.70;;
34836;SDS011;21053;50.848;4.652;2023-04-24T01:59:17;22.77;;;10.60;;
34836;SDS011;21053;50.848;4.652;2023-04-24T02:01:47;22.27;;;10.73;;
34836;SDS011;21053;50.848;4.652;2023-04-24T02:06:45;20.52;;;11.00;;
34836;SDS011;21053;50.848;4.652;2023-04-24T02:09:13;20.42;;;11.00;;
34836;SDS011;21053;50.848;4.652;2023-04-24T02:11:40;23.85;;;11.13;;
34836;SDS011;21053;50.848;4.652;2023-04-24T02:16:38;24.27;;;11.52;;
34836;SDS011;21053;50.848;4.652;2023-04-24T02:19:06;29.38;;;11.93;;
34836;SDS011;21053;50.848;4.652;2023-04-24T02:21:34;25.42;;;12.23;;
34836;SDS011;21053;50.848;4.652;2023-04-24T02:24:00;30.38;;;13.93;;
34836;SDS011;21053;50.848;4.652;2023-04-24T02:28:57;24.58;;;13.60;;
34836;SDS011;21053;50.848;4.652;2023-04-24T02:31:24;35.55;;;13.98;;
34836;SDS011;21053;50.848;4.652;2023-04-24T02:33:53;30.58;;;13.93;;
34836;SDS011;21053;50.848;4.652;2023-04-24T02:36:20;23.38;;;12.95;;
34836;SDS011;21053;50.848;4.652;2023-04-24T02:38:46;39.47;;;14.13;;
34836;SDS011;21053;50.848;4.652;2023-04-24T02:43:40;33.45;;;14.82;;
34836;SDS011;21053;50.848;4.652;2023-04-24T02:46:08;27.48;;;14.07;;
34836;SDS011;21053;50.848;4.652;2023-04-24T02:51:05;33.60;;;13.85;;
34836;SDS011;21053;50.848;4.652;2023-04-24T02:56:03;23.08;;;12.40;;
34836;SDS011;21053;50.848;4.652;2023-04-24T02:58:32;24.33;;;13.05;;
34836;SDS011;21053;50.848;4.652;2023-04-24T03:03:30;26.52;;;12.20;;
34836;SDS011;21053;50.848;4.652;2023-04-24T03:08:33;29.23;;;12.82;;
34836;SDS011;21053;50.848;4.652;2023-04-24T03:11:02;21.98;;;12.18;;
34836;SDS011;21053;50.848;4.652;2023-04-24T03:13:31;21.80;;;11.52;;
34836;SDS011;21053;50.848;4.652;2023-04-24T03:15:59;23.08;;;11.60;;
34836;SDS011;21053;50.848;4.652;2023-04-24T03:18:25;20.80;;;11.18;;
34836;SDS011;21053;50.848;4.652;2023-04-24T03:20:51;23.48;;;11.30;;
34836;SDS011;21053;50.848;4.652;2023-04-24T03:28:17;21.50;;;11.30;;
34836;SDS011;21053;50.848;4.652;2023-04-24T03:33:14;21.80;;;10.18;;
34836;SDS011;21053;50.848;4.652;2023-04-24T03:35:41;19.80;;;10.68;;
34836;SDS011;21053;50.848;4.652;2023-04-24T03:38:08;18.50;;;10.70;;
34836;SDS011;21053;50.848;4.652;2023-04-24T03:40:35;20.85;;;10.02;;
34836;SDS011;21053;50.848;4.652;2023-04-24T03:43:02;20.15;;;9.73;;
34836;SDS011;21053;50.848;4.652;2023-04-24T03:45:37;16.70;;;9.85;;
34836;SDS011;21053;50.848;4.652;2023-04-24T03:48:03;17.55;;;9.45;;
34836;SDS011;21053;50.848;4.652;2023-04-24T03:50:29;18.27;;;9.85;;
34836;SDS011;21053;50.848;4.652;2023-04-24T03:52:54;16.23;;;9.48;;
34836;SDS011;21053;50.848;4.652;2023-04-24T03:55:20;15.25;;;8.98;;
34836;SDS011;21053;50.848;4.652;2023-04-24T03:57:46;16.10;;;8.70;;
34836;SDS011;21053;50.848;4.652;2023-04-24T04:00:12;19.25;;;9.13;;
34836;SDS011;21053;50.848;4.652;2023-04-24T04:02:42;19.92;;;9.40;;
34836;SDS011;21053;50.848;4.652;2023-04-24T04:05:14;19.63;;;9.70;;
34836;SDS011;21053;50.848;4.652;2023-04-24T04:10:44;13.57;;;7.18;;
34836;SDS011;21053;50.848;4.652;2023-04-24T04:15:41;12.90;;;6.70;;
34836;SDS011;21053;50.848;4.652;2023-04-24T04:18:09;13.77;;;6.07;;
34836;SDS011;21053;50.848;4.652;2023-04-24T04:20:36;13.63;;;6.15;;
34836;SDS011;21053;50.848;4.652;2023-04-24T04:23:02;17.38;;;7.00;;
34836;SDS011;21053;50.848;4.652;2023-04-24T04:25:30;9.20;;;5.57;;
34836;SDS011;21053;50.848;4.652;2023-04-24T04:27:59;12.05;;;6.20;;
34836;SDS011;21053;50.848;4.652;2023-04-24T04:30:28;16.80;;;6.00;;
34836;SDS011;21053;50.848;4.652;2023-04-24T04:33:03;13.40;;;6.90;;
34836;SDS011;21053;50.848;4.652;2023-04-24T04:35:31;11.13;;;5.88;;
34836;SDS011;21053;50.848;4.652;2023-04-24T04:37:57;11.40;;;5.85;;
34836;SDS011;21053;50.848;4.652;2023-04-24T04:40:24;10.05;;;5.68;;
34836;SDS011;21053;50.848;4.652;2023-04-24T04:42:52;10.55;;;6.00;;
34836;SDS011;21053;50.848;4.652;2023-04-24T04:45:18;13.77;;;6.55;;
34836;SDS011;21053;50.848;4.652;2023-04-24T04:47:45;11.00;;;6.30;;
34836;SDS011;21053;50.848;4.652;2023-04-24T04:50:11;12.13;;;6.25;;
34836;SDS011;21053;50.848;4.652;2023-04-24T04:52:37;17.23;;;5.85;;
34836;SDS011;21053;50.848;4.652;2023-04-24T04:55:03;10.35;;;6.35;;
34836;SDS011;21053;50.848;4.652;2023-04-24T04:57:33;10.60;;;5.97;;
34836;SDS011;21053;50.848;4.652;2023-04-24T05:00:02;9.40;;;6.20;;
34836;SDS011;21053;50.848;4.652;2023-04-24T05:09:16;13.00;;;7.40;;
34836;SDS011;21053;50.848;4.652;2023-04-24T05:11:46;14.00;;;7.70;;
34836;SDS011;21053;50.848;4.652;2023-04-24T05:14:19;16.73;;;7.95;;
34836;SDS011;21053;50.848;4.652;2023-04-24T05:16:45;18.58;;;8.15;;
34836;SDS011;21053;50.848;4.652;2023-04-24T05:21:48;23.95;;;9.80;;
34836;SDS011;21053;50.848;4.652;2023-04-24T05:24:15;18.70;;;9.43;;
34836;SDS011;21053;50.848;4.652;2023-04-24T05:26:41;17.88;;;10.00;;
34836;SDS011;21053;50.848;4.652;2023-04-24T05:29:09;22.25;;;9.40;;
34836;SDS011;21053;50.848;4.652;2023-04-24T05:31:35;17.98;;;9.10;;
34836;SDS011;21053;50.848;4.652;2023-04-24T05:34:04;16.77;;;9.00;;
34836;SDS011;21053;50.848;4.652;2023-04-24T05:36:31;20.05;;;9.40;;
34836;SDS011;21053;50.848;4.652;2023-04-24T05:38:59;19.55;;;10.95;;
34836;SDS011;21053;50.848;4.652;2023-04-24T05:41:25;20.42;;;10.05;;
34836;SDS011;21053;50.848;4.652;2023-04-24T05:43:51;23.05;;;11.48;;
34836;SDS011;21053;50.848;4.652;2023-04-24T05:46:16;24.85;;;10.82;;
34836;SDS011;21053;50.848;4.652;2023-04-24T05:48:42;22.38;;;11.68;;
34836;SDS011;21053;50.848;4.652;2023-04-24T05:51:09;29.80;;;11.32;;
34836;SDS011;21053;50.848;4.652;2023-04-24T05:53:35;24.35;;;11.88;;
34836;SDS011;21053;50.848;4.652;2023-04-24T05:56:01;30.33;;;11.35;;
34836;SDS011;21053;50.848;4.652;2023-04-24T05:58:26;24.67;;;12.48;;
34836;SDS011;21053;50.848;4.652;2023-04-24T06:00:52;30.63;;;11.35;;
34836;SDS011;21053;50.848;4.652;2023-04-24T06:03:19;25.55;;;11.15;;
34836;SDS011;21053;50.848;4.652;2023-04-24T06:05:45;29.90;;;12.65;;
34836;SDS011;21053;50.848;4.652;2023-04-24T06:08:10;22.15;;;11.30;;
34836;SDS011;21053;50.848;4.652;2023-04-24T06:10:36;25.98;;;12.38;;
34836;SDS011;21053;50.848;4.652;2023-04-24T06:13:04;43.10;;;13.10;;
34836;SDS011;21053;50.848;4.652;2023-04-24T06:15:30;24.30;;;11.48;;
34836;SDS011;21053;50.848;4.652;2023-04-24T06:17:56;28.33;;;12.20;;
34836;SDS011;21053;50.848;4.652;2023-04-24T06:20:22;31.25;;;12.85;;
34836;SDS011;21053;50.848;4.652;2023-04-24T06:22:48;26.98;;;12.20;;
34836;SDS011;21053;50.848;4.652;2023-04-24T06:25:14;32.42;;;12.70;;
34836;SDS011;21053;50.848;4.652;2023-04-24T06:27:40;27.20;;;12.65;;
34836;SDS011;21053;50.848;4.652;2023-04-24T06:30:06;29.55;;;14.60;;
34836;SDS011;21053;50.848;4.652;2023-04-24T06:32:32;31.67;;;13.32;;
34836;SDS011;21053;50.848;4.652;2023-04-24T06:34:58;30.85;;;12.88;;
34836;SDS011;21053;50.848;4.652;2023-04-24T06:37:24;29.95;;;13.77;;
34836;SDS011;21053;50.848;4.652;2023-04-24T06:39:51;31.67;;;13.50;;
34836;SDS011;21053;50.848;4.652;2023-04-24T06:42:17;31.55;;;14.45;;
34836;SDS011;21053;50.848;4.652;2023-04-24T06:44:45;32.10;;;14.50;;
34836;SDS011;21053;50.848;4.652;2023-04-24T06:47:11;40.78;;;14.82;;
34836;SDS011;21053;50.848;4.652;2023-04-24T06:49:40;32.10;;;14.60;;
34836;SDS011;21053;50.848;4.652;2023-04-24T06:52:06;26.67;;;14.95;;
34836;SDS011;21053;50.848;4.652;2023-04-24T06:54:33;38.35;;;15.60;;
34836;SDS011;21053;50.848;4.652;2023-04-24T06:56:59;36.00;;;15.10;;
34836;SDS011;21053;50.848;4.652;2023-04-24T06:59:28;30.60;;;15.32;;
34836;SDS011;21053;50.848;4.652;2023-04-24T07:01:56;33.92;;;15.95;;
34836;SDS011;21053;50.848;4.652;2023-04-24T07:04:23;35.58;;;14.48;;
34836;SDS011;21053;50.848;4.652;2023-04-24T07:06:50;34.55;;;16.13;;
34836;SDS011;21053;50.848;4.652;2023-04-24T07:09:16;46.88;;;16.60;;
34836;SDS011;21053;50.848;4.652;2023-04-24T07:11:43;38.33;;;16.90;;
34836;SDS011;21053;50.848;4.652;2023-04-24T07:14:11;41.03;;;16.98;;
34836;SDS011;21053;50.848;4.652;2023-04-24T07:16:38;38.78;;;17.50;;
34836;SDS011;21053;50.848;4.652;2023-04-24T07:19:05;43.08;;;17.52;;
34836;SDS011;21053;50.848;4.652;2023-04-24T07:21:31;42.47;;;18.55;;
34836;SDS011;21053;50.848;4.652;2023-04-24T07:23:57;44.53;;;18.23;;
34836;SDS011;21053;50.848;4.652;2023-04-24T07:26:23;45.10;;;17.38;;
34836;SDS011;21053;50.848;4.652;2023-04-24T07:28:50;44.28;;;17.73;;
34836;SDS011;21053;50.848;4.652;2023-04-24T07:31:16;43.40;;;17.15;;
34836;SDS011;21053;50.848;4.652;2023-04-24T07:33:42;41.35;;;17.27;;
34836;SDS011;21053;50.848;4.652;2023-04-24T07:36:07;32.45;;;16.50;;
34836;SDS011;21053;50.848;4.652;2023-04-24T07:38:33;38.70;;;16.00;;
34836;SDS011;21053;50.848;4.652;2023-04-24T07:40:59;35.58;;;17.02;;
34836;SDS011;21053;50.848;4.652;2023-04-24T07:43:25;42.45;;;16.98;;
34836;SDS011;21053;50.848;4.652;2023-04-24T07:45:50;38.70;;;16.00;;
34836;SDS011;21053;50.848;4.652;2023-04-24T07:48:16;37.78;;;15.07;;
34836;SDS011;21053;50.848;4.652;2023-04-24T07:50:44;42.17;;;14.95;;
34836;SDS011;21053;50.848;4.652;2023-04-24T07:53:10;35.38;;;15.23;;
34836;SDS011;21053;50.848;4.652;2023-04-24T07:55:37;27.20;;;13.63;;
34836;SDS011;21053;50.848;4.652;2023-04-24T07:58:03;35.45;;;13.98;;
34836;SDS011;21053;50.848;4.652;2023-04-24T08:00:29;28.48;;;12.00;;
34836;SDS011;21053;50.848;4.652;2023-04-24T08:02:55;34.05;;;11.95;;
34836;SDS011;21053;50.848;4.652;2023-04-24T08:05:20;30.52;;;11.95;;
34836;SDS011;21053;50.848;4.652;2023-04-24T08:07:46;32.35;;;12.75;;
34836;SDS011;21053;50.848;4.652;2023-04-24T08:10:14;29.67;;;11.80;;
34836;SDS011;21053;50.848;4.652;2023-04-24T08:12:41;35.33;;;11.85;;
34836;SDS011;21053;50.848;4.652;2023-04-24T08:15:06;31.45;;;11.10;;
34836;SDS011;21053;50.848;4.652;2023-04-24T08:17:34;22.20;;;9.50;;
34836;SDS011;21053;50.848;4.652;2023-04-24T08:20:00;22.75;;;8.80;;
34836;SDS011;21053;50.848;4.652;2023-04-24T08:22:27;22.67;;;10.05;;
34836;SDS011;21053;50.848;4.652;2023-04-24T08:24:54;27.20;;;8.15;;
34836;SDS011;21053;50.848;4.652;2023-04-24T08:27:22;17.00;;;7.68;;
34836;SDS011;21053;50.848;4.652;2023-04-24T08:29:48;24.02;;;7.72;;
34836;SDS011;21053;50.848;4.652;2023-04-24T08:32:14;21.52;;;7.90;;
34836;SDS011;21053;50.848;4.652;2023-04-24T08:34:40;26.85;;;8.05;;
34836;SDS011;21053;50.848;4.652;2023-04-24T08:37:06;29.33;;;8.75;;
34836;SDS011;21053;50.848;4.652;2023-04-24T08:39:32;26.38;;;8.75;;
34836;SDS011;21053;50.848;4.652;2023-04-24T08:41:57;25.88;;;8.27;;
34836;SDS011;21053;50.848;4.652;2023-04-24T08:44:32;24.65;;;8.70;;
34836;SDS011;21053;50.848;4.652;2023-04-24T08:46:57;30.27;;;8.52;;
34836;SDS011;21053;50.848;4.652;2023-04-24T08:49:24;31.58;;;7.55;;
34836;SDS011;21053;50.848;4.652;2023-04-24T08:51:52;26.50;;;7.00;;
34836;SDS011;21053;50.848;4.652;2023-04-24T08:54:18;21.75;;;6.47;;
34836;SDS011;21053;50.848;4.652;2023-04-24T08:56:45;21.90;;;5.78;;
34836;SDS011;21053;50.848;4.652;2023-04-24T08:59:13;21.75;;;5.55;;
34836;SDS011;21053;50.848;4.652;2023-04-24T09:01:40;16.35;;;6.18;;
34836;SDS011;21053;50.848;4.652;2023-04-24T09:04:07;17.83;;;5.65;;
34836;SDS011;21053;50.848;4.652;2023-04-24T09:06:38;17.27;;;5.50;;
34836;SDS011;21053;50.848;4.652;2023-04-24T09:09:04;13.82;;;5.45;;
34836;SDS011;21053;50.848;4.652;2023-04-24T09:11:31;19.80;;;6.60;;
34836;SDS011;21053;50.848;4.652;2023-04-24T09:14:00;18.45;;;5.70;;
34836;SDS011;21053;50.848;4.652;2023-04-24T09:16:26;16.63;;;6.05;;
34836;SDS011;21053;50.848;4.652;2023-04-24T09:18:52;14.60;;;5.65;;
34836;SDS011;21053;50.848;4.652;2023-04-24T09:21:20;20.17;;;5.55;;
34836;SDS011;21053;50.848;4.652;2023-04-24T09:23:57;17.50;;;4.80;;
34836;SDS011;21053;50.848;4.652;2023-04-24T09:26:30;16.33;;;4.78;;
34836;SDS011;21053;50.848;4.652;2023-04-24T09:28:57;9.30;;;4.03;;
34836;SDS011;21053;50.848;4.652;2023-04-24T09:31:23;15.88;;;4.25;;
34836;SDS011;21053;50.848;4.652;2023-04-24T09:36:28;11.70;;;3.63;;
34836;SDS011;21053;50.848;4.652;2023-04-24T09:38:58;13.02;;;4.00;;
34836;SDS011;21053;50.848;4.652;2023-04-24T09:41:29;14.10;;;3.95;;
34836;SDS011;21053;50.848;4.652;2023-04-24T09:43:57;10.63;;;4.00;;
34836;SDS011;21053;50.848;4.652;2023-04-24T09:46:36;15.65;;;4.13;;
34836;SDS011;21053;50.848;4.652;2023-04-24T09:49:09;16.48;;;4.03;;
34836;SDS011;21053;50.848;4.652;2023-04-24T09:51:37;11.25;;;3.83;;
34836;SDS011;21053;50.848;4.652;2023-04-24T09:54:04;8.68;;;3.90;;
34836;SDS011;21053;50.848;4.652;2023-04-24T09:56:35;11.93;;;4.32;;
34836;SDS011;21053;50.848;4.652;2023-04-24T09:59:05;12.63;;;4.13;;
34836;SDS011;21053;50.848;4.652;2023-04-24T10:01:31;19.75;;;4.47;;
34836;SDS011;21053;50.848;4.652;2023-04-24T10:03:58;19.70;;;4.32;;
34836;SDS011;21053;50.848;4.652;2023-04-24T10:06:29;16.80;;;4.72;;
34836;SDS011;21053;50.848;4.652;2023-04-24T10:09:02;15.73;;;4.03;;
34836;SDS011;21053;50.848;4.652;2023-04-24T10:11:28;10.90;;;3.85;;
34836;SDS011;21053;50.848;4.652;2023-04-24T10:13:55;9.80;;;3.92;;
34836;SDS011;21053;50.848;4.652;2023-04-24T10:16:22;14.18;;;4.10;;
34836;SDS011;21053;50.848;4.652;2023-04-24T10:18:49;19.17;;;5.07;;
34836;SDS011;21053;50.848;4.652;2023-04-24T10:21:18;12.85;;;4.30;;
34836;SDS011;21053;50.848;4.652;2023-04-24T10:23:44;13.48;;;4.07;;
34836;SDS011;21053;50.848;4.652;2023-04-24T10:26:14;12.85;;;3.60;;
34836;SDS011;21053;50.848;4.652;2023-04-24T10:28:47;15.60;;;3.83;;
34836;SDS011;21053;50.848;4.652;2023-04-24T10:31:13;10.70;;;3.50;;
34836;SDS011;21053;50.848;4.652;2023-04-24T10:33:41;14.95;;;3.85;;
34836;SDS011;21053;50.848;4.652;2023-04-24T10:36:09;13.18;;;3.75;;
34836;SDS011;21053;50.848;4.652;2023-04-24T10:38:36;11.20;;;3.78;;
34836;SDS011;21053;50.848;4.652;2023-04-24T10:41:11;18.23;;;3.42;;
34836;SDS011;21053;50.848;4.652;2023-04-24T10:43:44;11.45;;;4.05;;
34836;SDS011;21053;50.848;4.652;2023-04-24T10:46:11;11.05;;;4.05;;
34836;SDS011;21053;50.848;4.652;2023-04-24T10:48:51;9.70;;;3.50;;
34836;SDS011;21053;50.848;4.652;2023-04-24T10:51:22;10.95;;;3.63;;
34836;SDS011;21053;50.848;4.652;2023-04-24T10:53:52;11.25;;;3.90;;
34836;SDS011;21053;50.848;4.652;2023-04-24T10:56:21;12.40;;;3.85;;
34836;SDS011;21053;50.848;4.652;2023-04-24T10:58:51;12.77;;;3.97;;
34836;SDS011;21053;50.848;4.652;2023-04-24T11:03:55;10.05;;;3.83;;
34836;SDS011;21053;50.848;4.652;2023-04-24T11:06:32;17.08;;;3.53;;
34836;SDS011;21053;50.848;4.652;2023-04-24T11:09:03;13.20;;;3.70;;
34836;SDS011;21053;50.848;4.652;2023-04-24T11:11:34;16.02;;;3.65;;
34836;SDS011;21053;50.848;4.652;2023-04-24T11:14:03;11.48;;;3.80;;
34836;SDS011;21053;50.848;4.652;2023-04-24T11:19:22;10.63;;;3.42;;
34836;SDS011;21053;50.848;4.652;2023-04-24T11:21:58;11.57;;;3.85;;
34836;SDS011;21053;50.848;4.652;2023-04-24T11:24:49;14.93;;;4.10;;
34836;SDS011;21053;50.848;4.652;2023-04-24T11:27:19;10.43;;;3.58;;
34836;SDS011;21053;50.848;4.652;2023-04-24T11:34:59;10.05;;;4.05;;
34836;SDS011;21053;50.848;4.652;2023-04-24T11:37:27;10.77;;;4.03;;
34836;SDS011;21053;50.848;4.652;2023-04-24T11:39:55;11.15;;;4.45;;
34836;SDS011;21053;50.848;4.652;2023-04-24T11:42:23;13.07;;;4.00;;
34836;SDS011;21053;50.848;4.652;2023-04-24T11:44:52;18.65;;;4.30;;
34836;SDS011;21053;50.848;4.652;2023-04-24T11:47:19;10.23;;;4.60;;
34836;SDS011;21053;50.848;4.652;2023-04-24T11:49:45;14.20;;;4.30;;
34836;SDS011;21053;50.848;4.652;2023-04-24T11:52:15;18.67;;;4.45;;
34836;SDS011;21053;50.848;4.652;2023-04-24T11:54:48;11.60;;;4.30;;
34836;SDS011;21053;50.848;4.652;2023-04-24T11:57:21;17.63;;;5.10;;
34836;SDS011;21053;50.848;4.652;2023-04-24T11:59:54;9.02;;;4.18;;
34836;SDS011;21053;50.848;4.652;2023-04-24T12:02:27;15.18;;;4.82;;
34836;SDS011;21053;50.848;4.652;2023-04-24T12:04:53;7.95;;;3.83;;
34836;SDS011;21053;50.848;4.652;2023-04-24T12:07:19;10.50;;;4.20;;
34836;SDS011;21053;50.848;4.652;2023-04-24T12:09:49;11.85;;;4.30;;
34836;SDS011;21053;50.848;4.652;2023-04-24T12:12:23;12.30;;;4.75;;
34836;SDS011;21053;50.848;4.652;2023-04-24T12:14:57;10.65;;;4.32;;
34836;SDS011;21053;50.848;4.652;2023-04-24T12:17:24;10.52;;;4.43;;
34836;SDS011;21053;50.848;4.652;2023-04-24T12:20:05;12.40;;;4.20;;
34836;SDS011;21053;50.848;4.652;2023-04-24T12:22:52;10.82;;;4.57;;
34836;SDS011;21053;50.848;4.652;2023-04-24T12:25:20;9.57;;;4.80;;
34836;SDS011;21053;50.848;4.652;2023-04-24T12:27:52;12.65;;;4.57;;
34836;SDS011;21053;50.848;4.652;2023-04-24T12:30:19;10.82;;;4.60;;
34836;SDS011;21053;50.848;4.652;2023-04-24T12:32:48;13.65;;;4.90;;
34836;SDS011;21053;50.848;4.652;2023-04-24T12:35:21;13.68;;;5.00;;
34836;SDS011;21053;50.848;4.652;2023-04-24T12:37:48;15.70;;;4.90;;
34836;SDS011;21053;50.848;4.652;2023-04-24T12:40:14;9.30;;;4.75;;
34836;SDS011;21053;50.848;4.652;2023-04-24T12:45:10;14.02;;;4.90;;
34836;SDS011;21053;50.848;4.652;2023-04-24T12:47:37;12.00;;;4.70;;
34836;SDS011;21053;50.848;4.652;2023-04-24T12:50:04;10.68;;;3.75;;
34836;SDS011;21053;50.848;4.652;2023-04-24T12:52:31;10.48;;;4.00;;
34836;SDS011;21053;50.848;4.652;2023-04-24T12:55:00;9.75;;;3.85;;
34836;SDS011;21053;50.848;4.652;2023-04-24T12:57:30;8.60;;;3.42;;
34836;SDS011;21053;50.848;4.652;2023-04-24T12:59:56;11.15;;;3.70;;
34836;SDS011;21053;50.848;4.652;2023-04-24T13:02:26;12.93;;;4.22;;
34836;SDS011;21053;50.848;4.652;2023-04-24T13:04:54;10.88;;;4.38;;
34836;SDS011;21053;50.848;4.652;2023-04-24T13:07:20;7.70;;;3.88;;
34836;SDS011;21053;50.848;4.652;2023-04-24T13:09:47;11.70;;;4.15;;
34836;SDS011;21053;50.848;4.652;2023-04-24T13:12:14;9.60;;;3.97;;
34836;SDS011;21053;50.848;4.652;2023-04-24T13:14:40;11.68;;;4.25;;
34836;SDS011;21053;50.848;4.652;2023-04-24T13:17:07;11.70;;;4.28;;
34836;SDS011;21053;50.848;4.652;2023-04-24T13:19:37;12.77;;;3.42;;
34836;SDS011;21053;50.848;4.652;2023-04-24T13:22:05;6.07;;;3.53;;
34836;SDS011;21053;50.848;4.652;2023-04-24T13:24:31;9.15;;;3.38;;
34836;SDS011;21053;50.848;4.652;2023-04-24T13:26:57;7.88;;;3.50;;
34836;SDS011;21053;50.848;4.652;2023-04-24T13:29:23;6.88;;;3.47;;
34836;SDS011;21053;50.848;4.652;2023-04-24T13:31:52;14.07;;;3.22;;
34836;SDS011;21053;50.848;4.652;2023-04-24T13:34:22;8.88;;;3.50;;
34836;SDS011;21053;50.848;4.652;2023-04-24T13:36:52;12.60;;;3.28;;
34836;SDS011;21053;50.848;4.652;2023-04-24T13:39:19;11.27;;;3.05;;
34836;SDS011;21053;50.848;4.652;2023-04-24T13:41:45;20.08;;;3.33;;
34836;SDS011;21053;50.848;4.652;2023-04-24T13:44:13;6.28;;;3.17;;
34836;SDS011;21053;50.848;4.652;2023-04-24T13:46:40;8.00;;;3.05;;
34836;SDS011;21053;50.848;4.652;2023-04-24T13:49:06;6.00;;;3.08;;
34836;SDS011;21053;50.848;4.652;2023-04-24T13:51:32;11.07;;;3.10;;
34836;SDS011;21053;50.848;4.652;2023-04-24T13:53:58;6.60;;;2.90;;
34836;SDS011;21053;50.848;4.652;2023-04-24T13:56:24;8.60;;;2.88;;
34836;SDS011;21053;50.848;4.652;2023-04-24T13:58:51;6.72;;;2.80;;
34836;SDS011;21053;50.848;4.652;2023-04-24T14:01:18;8.60;;;2.65;;
34836;SDS011;21053;50.848;4.652;2023-04-24T14:03:45;6.68;;;2.70;;
34836;SDS011;21053;50.848;4.652;2023-04-24T14:06:11;7.47;;;2.50;;
34836;SDS011;21053;50.848;4.652;2023-04-24T14:08:37;7.70;;;2.60;;
34836;SDS011;21053;50.848;4.652;2023-04-24T14:11:03;7.03;;;2.42;;
34836;SDS011;21053;50.848;4.652;2023-04-24T14:13:29;5.90;;;3.03;;
34836;SDS011;21053;50.848;4.652;2023-04-24T14:15:55;14.65;;;3.05;;
34836;SDS011;21053;50.848;4.652;2023-04-24T14:18:21;12.00;;;3.58;;
34836;SDS011;21053;50.848;4.652;2023-04-24T14:20:47;12.45;;;3.70;;
34836;SDS011;21053;50.848;4.652;2023-04-24T14:23:12;10.88;;;3.58;;
34836;SDS011;21053;50.848;4.652;2023-04-24T14:25:38;8.90;;;3.33;;
34836;SDS011;21053;50.848;4.652;2023-04-24T14:28:05;8.25;;;2.75;;
34836;SDS011;21053;50.848;4.652;2023-04-24T14:30:31;9.88;;;2.85;;
34836;SDS011;21053;50.848;4.652;2023-04-24T14:32:57;7.55;;;2.40;;
34836;SDS011;21053;50.848;4.652;2023-04-24T14:35:26;9.93;;;3.38;;
34836;SDS011;21053;50.848;4.652;2023-04-24T14:37:51;12.80;;;2.60;;
34836;SDS011;21053;50.848;4.652;2023-04-24T14:40:17;11.60;;;2.65;;
34836;SDS011;21053;50.848;4.652;2023-04-24T14:42:43;8.13;;;2.83;;
34836;SDS011;21053;50.848;4.652;2023-04-24T14:45:14;8.10;;;2.88;;
34836;SDS011;21053;50.848;4.652;2023-04-24T14:47:40;19.40;;;3.00;;
34836;SDS011;21053;50.848;4.652;2023-04-24T14:50:06;5.07;;;2.42;;
34836;SDS011;21053;50.848;4.652;2023-04-24T14:52:33;9.05;;;2.80;;
34836;SDS011;21053;50.848;4.652;2023-04-24T14:54:59;8.13;;;2.30;;
34836;SDS011;21053;50.848;4.652;2023-04-24T14:57:24;6.93;;;2.72;;
34836;SDS011;21053;50.848;4.652;2023-04-24T14:59:51;10.73;;;2.20;;
34836;SDS011;21053;50.848;4.652;2023-04-24T15:02:16;11.40;;;3.58;;
34836;SDS011;21053;50.848;4.652;2023-04-24T15:04:42;10.85;;;3.00;;
34836;SDS011;21053;50.848;4.652;2023-04-24T15:07:08;7.38;;;2.72;;
34836;SDS011;21053;50.848;4.652;2023-04-24T15:09:34;7.57;;;3.38;;
34836;SDS011;21053;50.848;4.652;2023-04-24T15:12:00;8.13;;;2.50;;
34836;SDS011;21053;50.848;4.652;2023-04-24T15:14:26;7.82;;;2.40;;
34836;SDS011;21053;50.848;4.652;2023-04-24T15:16:52;9.23;;;2.42;;
34836;SDS011;21053;50.848;4.652;2023-04-24T15:19:18;6.75;;;2.53;;
34836;SDS011;21053;50.848;4.652;2023-04-24T15:21:44;11.45;;;2.63;;
34836;SDS011;21053;50.848;4.652;2023-04-24T15:24:09;6.53;;;3.05;;
34836;SDS011;21053;50.848;4.652;2023-04-24T15:26:35;9.05;;;2.80;;
34836;SDS011;21053;50.848;4.652;2023-04-24T15:29:02;12.25;;;2.80;;
34836;SDS011;21053;50.848;4.652;2023-04-24T15:31:30;8.52;;;3.63;;
34836;SDS011;21053;50.848;4.652;2023-04-24T15:33:59;18.73;;;3.72;;
34836;SDS011;21053;50.848;4.652;2023-04-24T15:39:02;10.68;;;2.92;;
34836;SDS011;21053;50.848;4.652;2023-04-24T15:41:31;13.43;;;2.90;;
34836;SDS011;21053;50.848;4.652;2023-04-24T15:43:59;12.57;;;2.53;;
34836;SDS011;21053;50.848;4.652;2023-04-24T15:46:25;4.63;;;2.00;;
34836;SDS011;21053;50.848;4.652;2023-04-24T15:48:54;8.18;;;2.53;;
34836;SDS011;21053;50.848;4.652;2023-04-24T15:53:49;9.90;;;2.40;;